Time;durP1;ratioP1;P1;durP2;ratioP2;P2;SDS_P1;SDS_P2;PMS_P1;PMS_P2;Temp;Humidity;BMP_temperature;BMP_pressure;BME280_temperature;BME280_humidity;BME280_pressure;Samples;Min_cycle;Max_cycle;Signal;HPM_P1;HPM_P2
2021/05/23 00:02:55;;;;;;;8.63;4.10;;;;;;;13.45;100.00;94859.88;10408839;28;20718;-77
2021/05/23 00:08:06;;;;;;;6.22;3.38;;;;;;;13.41;100.00;94850.75;10408748;28;20283;-77
2021/05/23 00:13:09;;;;;;;4.60;3.40;;;;;;;13.38;100.00;94861.31;10408796;28;20026;-77
2021/05/23 00:18:10;;;;;;;11.02;4.38;;;;;;;13.30;100.00;94860.03;10408270;28;20030;-77
2021/05/23 00:23:11;;;;;;;5.10;3.22;;;;;;;13.10;100.00;94867.25;10406362;28;20425;-77
2021/05/23 00:28:12;;;;;;;12.77;3.83;;;;;;;13.19;100.00;94848.53;10407292;28;20059;-77
2021/05/23 00:33:13;;;;;;;6.78;3.22;;;;;;;13.09;100.00;94854.84;10428098;28;20413;-77
2021/05/23 00:38:14;;;;;;;4.63;3.38;;;;;;;13.15;100.00;94852.88;10447808;28;20021;-77
2021/05/23 00:43:17;;;;;;;7.03;4.20;;;;;;;12.96;100.00;94850.94;10446967;28;20029;-77
2021/05/23 00:48:20;;;;;;;7.15;4.43;;;;;;;12.96;100.00;94861.72;10448400;28;20099;-77
2021/05/23 00:53:21;;;;;;;7.15;3.92;;;;;;;12.97;100.00;94873.31;10447956;28;20021;-78
2021/05/23 00:58:21;;;;;;;7.60;3.20;;;;;;;12.83;100.00;94863.16;10447343;28;20029;-77
2021/05/23 01:03:27;;;;;;;5.72;4.10;;;;;;;12.74;100.00;94877.53;10446899;28;20025;-78
2021/05/23 01:08:28;;;;;;;6.60;3.95;;;;;;;12.51;100.00;94876.41;10447603;28;20033;-77
2021/05/23 01:13:35;;;;;;;11.27;4.40;;;;;;;12.44;100.00;94876.72;10447536;28;20029;-78
2021/05/23 01:18:50;;;;;;;5.60;4.32;;;;;;;12.20;100.00;94873.94;10447362;28;20111;-78
2021/05/23 01:23:54;;;;;;;6.40;4.30;;;;;;;12.14;100.00;94873.16;10446862;28;20063;-78
2021/05/23 01:29:01;;;;;;;6.47;4.32;;;;;;;12.24;100.00;94859.63;10447017;28;20073;-78
2021/05/23 01:34:03;;;;;;;9.30;3.85;;;;;;;12.15;100.00;94853.19;10446044;28;20484;-78
2021/05/23 01:39:07;;;;;;;7.20;4.95;;;;;;;12.11;100.00;94871.81;10446578;28;20067;-77
2021/05/23 01:44:08;;;;;;;8.07;3.70;;;;;;;12.13;100.00;94882.31;10446384;28;20029;-77
2021/05/23 01:49:09;;;;;;;5.63;3.05;;;;;;;12.16;100.00;94881.75;10446445;28;20036;-77
2021/05/23 01:54:09;;;;;;;5.43;3.03;;;;;;;12.21;100.00;94878.22;10446147;28;20029;-77
2021/05/23 01:59:09;;;;;;;4.03;3.55;;;;;;;12.12;100.00;94889.56;10445964;28;20045;-77
2021/05/23 02:04:11;;;;;;;6.00;3.40;;;;;;;12.12;100.00;94886.88;10445830;28;20086;-77
2021/05/23 02:09:11;;;;;;;4.82;3.35;;;;;;;11.98;100.00;94891.28;10445457;28;20021;-77
2021/05/23 02:14:14;;;;;;;4.70;3.10;;;;;;;11.92;100.00;94892.38;10445442;28;20024;-78
2021/05/23 02:19:14;;;;;;;7.93;3.70;;;;;;;11.87;100.00;94892.41;10445551;28;20044;-77
2021/05/23 02:24:15;;;;;;;10.80;3.77;;;;;;;11.65;100.00;94893.56;10443032;28;20045;-77
2021/05/23 02:29:16;;;;;;;17.75;4.15;;;;;;;11.64;100.00;94889.28;10444615;28;20032;-78
2021/05/23 02:34:16;;;;;;;4.17;3.73;;;;;;;11.62;100.00;94886.88;10444802;28;20028;-77
2021/05/23 02:39:20;;;;;;;7.10;3.37;;;;;;;11.52;100.00;94888.78;10444768;28;20040;-78
2021/05/23 02:44:20;;;;;;;4.55;3.65;;;;;;;11.56;100.00;94887.16;10449691;28;20036;-78
2021/05/23 02:49:20;;;;;;;4.43;3.50;;;;;;;11.54;100.00;94897.38;10452895;28;20025;-78
2021/05/23 02:54:21;;;;;;;10.73;3.90;;;;;;;11.67;100.00;94894.09;10453205;28;20058;-78
2021/05/23 02:59:21;;;;;;;10.33;4.23;;;;;;;11.63;100.00;94893.03;10450634;28;20728;-75
2021/05/23 03:04:22;;;;;;;14.20;4.10;;;;;;;11.55;100.00;94896.31;10441860;28;20026;-75
2021/05/23 03:09:22;;;;;;;6.90;4.80;;;;;;;11.59;100.00;94894.69;10409653;28;20815;-74
2021/05/23 03:14:22;;;;;;;8.13;5.00;;;;;;;11.62;100.00;94899.50;10409611;28;20029;-75
2021/05/23 03:19:23;;;;;;;7.40;4.57;;;;;;;11.49;100.00;94902.78;10410472;28;20092;-75
2021/05/23 03:24:23;;;;;;;14.13;5.00;;;;;;;11.46;100.00;94904.94;10410588;28;20060;-75
2021/05/23 03:29:24;;;;;;;7.97;4.77;;;;;;;11.56;100.00;94912.19;10409837;28;20276;-76
2021/05/23 03:34:25;;;;;;;10.13;4.83;;;;;;;11.65;100.00;94912.41;10415196;28;20288;-75
2021/05/23 03:39:25;;;;;;;5.28;3.75;;;;;;;11.80;100.00;94917.75;10409402;28;20633;-75
2021/05/23 03:44:26;;;;;;;8.18;4.10;;;;;;;11.81;100.00;94918.53;10407330;28;20021;-76
2021/05/23 03:49:26;;;;;;;8.48;4.22;;;;;;;11.89;100.00;94925.22;10409511;28;20639;-76
2021/05/23 03:54:26;;;;;;;3.70;3.10;;;;;;;12.01;100.00;94936.53;10407479;28;20022;-76
2021/05/23 03:59:27;;;;;;;8.80;3.80;;;;;;;12.12;100.00;94942.66;10409194;28;20043;-75
2021/05/23 04:04:45;;;;;;;4.27;3.17;;;;;;;12.10;100.00;94934.88;10409419;28;20083;-75
2021/05/23 04:09:47;;;;;;;3.45;3.15;;;;;;;12.12;100.00;94938.06;10418715;28;20021;-76
2021/05/23 04:14:47;;;;;;;4.70;3.60;;;;;;;11.88;100.00;94945.97;10408570;28;20055;-75
2021/05/23 04:19:48;;;;;;;8.50;3.30;;;;;;;11.76;100.00;94953.56;10407684;28;20028;-76
2021/05/23 04:24:48;;;;;;;4.53;3.33;;;;;;;11.78;100.00;94951.41;10404735;28;20050;-76
2021/05/23 04:29:49;;;;;;;4.40;3.70;;;;;;;12.14;100.00;94952.09;10406380;28;20260;-72
2021/05/23 04:34:49;;;;;;;7.72;5.05;;;;;;;12.73;100.00;94954.97;10443302;28;20025;-72
2021/05/23 04:39:49;;;;;;;7.00;3.73;;;;;;;12.98;100.00;94962.03;10446965;28;20492;-72
2021/05/23 04:44:50;;;;;;;5.25;4.18;;;;;;;13.45;100.00;94957.06;10446869;28;20087;-72
2021/05/23 04:49:51;;;;;;;7.50;3.33;;;;;;;14.30;100.00;94960.13;10439524;28;20025;-72
2021/05/23 04:54:51;;;;;;;9.53;3.70;;;;;;;14.62;100.00;94965.91;10412698;28;20029;-72
2021/05/23 04:59:52;;;;;;;9.40;3.43;;;;;;;14.84;100.00;94960.72;10411470;28;20017;-72
2021/05/23 05:04:53;;;;;;;4.97;3.08;;;;;;;15.21;100.00;94944.72;10434447;28;20948;-72
2021/05/23 05:09:53;;;;;;;7.97;3.55;;;;;;;15.77;100.00;94956.44;10443854;28;20036;-72
2021/05/23 05:14:54;;;;;;;5.40;3.67;;;;;;;16.47;100.00;94954.50;10445590;28;20245;-73
2021/05/23 05:19:54;;;;;;;5.77;3.80;;;;;;;16.90;100.00;94962.22;10405906;28;20073;-73
2021/05/23 05:24:54;;;;;;;7.07;3.50;;;;;;;17.60;100.00;94962.66;10404258;28;20582;-73
2021/05/23 05:29:55;;;;;;;5.37;3.30;;;;;;;18.19;96.98;94950.75;10445130;28;20491;-72
2021/05/23 05:34:55;;;;;;;7.07;3.03;;;;;;;19.38;86.28;94949.84;10446755;28;20025;-73
2021/05/23 05:39:56;;;;;;;3.43;2.67;;;;;;;19.57;79.14;94947.56;10406619;28;20025;-72
2021/05/23 05:44:56;;;;;;;4.53;2.72;;;;;;;19.57;78.99;94941.31;10405316;28;20491;-73
2021/05/23 05:49:56;;;;;;;4.40;2.63;;;;;;;19.89;77.10;94948.13;10433764;28;20100;-73
2021/05/23 05:54:57;;;;;;;3.63;2.75;;;;;;;20.12;79.14;94956.84;10446114;28;20263;-73
2021/05/23 05:59:57;;;;;;;2.87;2.20;;;;;;;20.49;71.83;94959.06;10445867;28;20029;-73
2021/05/23 06:04:58;;;;;;;4.37;2.73;;;;;;;21.95;66.38;94961.16;10445699;28;20158;-73
2021/05/23 06:09:58;;;;;;;4.90;2.67;;;;;;;22.70;59.79;94955.38;10445544;28;20464;-73
2021/05/23 06:14:58;;;;;;;3.27;2.60;;;;;;;22.89;59.24;94962.16;10444430;28;20024;-72
2021/05/23 06:19:59;;;;;;;5.83;2.70;;;;;;;23.03;56.71;94956.31;10445030;28;20021;-73
2021/05/23 06:24:59;;;;;;;4.70;2.50;;;;;;;23.03;55.45;94970.78;10445527;28;20153;-72
2021/05/23 06:29:59;;;;;;;3.87;2.60;;;;;;;22.91;52.02;94968.09;10434268;28;20029;-73
2021/05/23 06:35:00;;;;;;;5.13;2.67;;;;;;;23.28;53.44;94970.75;10404858;28;20034;-73
2021/05/23 06:40:00;;;;;;;11.63;3.30;;;;;;;23.31;58.06;94981.00;10422490;28;20553;-73
2021/05/23 06:45:00;;;;;;;5.00;2.70;;;;;;;24.13;50.47;94970.66;10445713;28;20029;-73
2021/05/23 06:50:01;;;;;;;6.90;3.10;;;;;;;24.51;48.06;94980.19;10446127;28;20458;-73
2021/05/23 06:55:03;;;;;;;10.35;3.72;;;;;;;24.82;48.13;94969.50;10433285;28;20125;-73
2021/05/23 07:00:07;;;;;;;7.18;3.15;;;;;;;25.84;46.00;94970.38;10445343;28;20057;-73
2021/05/23 07:05:08;;;;;;;7.93;3.33;;;;;;;25.73;44.47;94957.22;10445364;28;20075;-73
2021/05/23 07:10:09;;;;;;;4.72;3.22;;;;;;;25.12;43.87;94947.78;10444942;28;20806;-70
2021/05/23 07:15:09;;;;;;;6.00;3.10;;;;;;;26.38;42.26;94946.53;10444839;28;20030;-70
2021/05/23 07:20:11;;;;;;;4.97;2.67;;;;;;;27.18;43.47;94931.91;10436373;28;20021;-73
2021/05/23 07:25:12;;;;;;;5.22;3.00;;;;;;;27.49;40.24;94927.97;10445274;28;20045;-73
2021/05/23 07:30:13;;;;;;;6.50;3.00;;;;;;;28.77;38.54;94932.25;10447173;28;20025;-71
2021/05/23 07:35:13;;;;;;;4.22;2.25;;;;;;;27.67;38.81;94933.69;10451290;28;20025;-70
2021/05/23 07:40:14;;;;;;;4.37;2.80;;;;;;;28.40;39.19;94927.63;10450857;28;20075;-73
2021/05/23 07:45:15;;;;;;;5.75;3.25;;;;;;;29.83;37.57;94928.69;10450780;28;20029;-71
2021/05/23 07:50:15;;;;;;;3.72;1.83;;;;;;;30.34;32.62;94927.56;10450947;28;20408;-72
2021/05/23 07:55:17;;;;;;;6.40;2.08;;;;;;;30.55;33.73;94922.44;10419830;28;20396;-72
2021/05/23 08:00:18;;;;;;;7.32;2.40;;;;;;;30.74;34.40;94924.00;10436192;28;20029;-71
2021/05/23 08:05:18;;;;;;;5.95;1.98;;;;;;;31.06;33.73;94921.16;10451108;28;20025;-72
2021/05/23 08:10:19;;;;;;;3.60;1.87;;;;;;;30.97;31.88;94921.53;10451170;28;20561;-71
2021/05/23 08:15:19;;;;;;;4.13;1.77;;;;;;;32.67;30.36;94910.22;10414812;28;20083;-71
2021/05/23 08:20:21;;;;;;;2.60;1.60;;;;;;;32.73;29.28;94898.69;10409159;28;20036;-71
2021/05/23 08:25:21;;;;;;;5.65;1.95;;;;;;;34.15;29.08;94891.69;10409434;28;20054;-71
2021/05/23 08:30:22;;;;;;;4.87;1.50;;;;;;;34.71;28.44;94893.94;10408967;28;20029;-71
2021/05/23 08:35:23;;;;;;;2.33;1.63;;;;;;;34.70;27.81;94886.75;10433343;28;20488;-71
2021/05/23 08:40:25;;;;;;;5.47;1.30;;;;;;;33.69;27.34;94887.59;10449908;28;20107;-71
2021/05/23 08:45:25;;;;;;;6.22;2.28;;;;;;;35.40;26.70;94903.81;10449489;28;20091;-71
2021/05/23 08:50:26;;;;;;;5.00;1.90;;;;;;;35.54;26.60;94889.56;10421849;28;20029;-71
2021/05/23 08:55:28;;;;;;;5.65;1.40;;;;;;;36.18;25.40;94885.72;10408349;28;20091;-72
2021/05/23 09:00:29;;;;;;;2.03;1.50;;;;;;;37.16;25.04;94879.19;10407889;28;20029;-71
2021/05/23 09:05:34;;;;;;;6.32;1.65;;;;;;;37.77;23.76;94871.03;10442909;28;20033;-71
2021/05/23 09:10:37;;;;;;;9.13;2.30;;;;;;;37.16;24.35;94878.41;10448804;28;20040;-71
2021/05/23 09:15:38;;;;;;;6.80;2.38;;;;;;;37.03;23.87;94867.94;10448677;28;20043;-71
2021/05/23 09:20:41;;;;;;;3.85;1.60;;;;;;;34.81;26.55;94878.22;10424173;28;20025;-71
2021/05/23 09:25:41;;;;;;;2.67;1.67;;;;;;;35.45;25.43;94880.19;10406374;28;20041;-71
2021/05/23 09:30:45;;;;;;;3.73;1.93;;;;;;;36.43;23.86;94868.31;10429916;28;20095;-71
2021/05/23 09:35:46;;;;;;;6.70;2.10;;;;;;;36.40;25.31;94866.41;10445869;28;20295;-72
2021/05/23 09:40:46;;;;;;;5.15;2.22;;;;;;;37.46;25.25;94854.72;10447923;28;20455;-73
2021/05/23 09:45:51;;;;;;;6.65;2.22;;;;;;;38.41;25.70;94850.56;10447222;28;20032;-74
2021/05/23 09:50:53;;;;;;;6.53;2.10;;;;;;;37.20;24.24;94854.63;10421396;28;20037;-74
2021/05/23 09:55:57;;;;;;;6.65;1.98;;;;;;;36.80;24.67;94843.78;10440977;28;20028;-74
2021/05/23 10:00:58;;;;;;;4.13;1.90;;;;;;;37.72;23.89;94830.28;10444227;28;20028;-73
2021/05/23 10:06:00;;;;;;;4.70;1.83;;;;;;;38.72;23.72;94825.44;10444381;28;20032;-74
2021/05/23 10:11:01;;;;;;;6.47;1.63;;;;;;;38.77;22.94;94821.28;10443152;28;20095;-73
2021/05/23 10:16:01;;;;;;;4.30;1.60;;;;;;;37.53;23.93;94809.66;10443810;28;20886;-71
2021/05/23 10:21:01;;;;;;;4.27;1.70;;;;;;;38.62;24.78;94807.69;10443921;28;20056;-71
2021/05/23 10:26:06;;;;;;;3.83;1.40;;;;;;;38.74;22.66;94799.69;10443483;28;20089;-70
2021/05/23 10:31:07;;;;;;;4.88;1.63;;;;;;;39.79;23.25;94802.97;10443373;28;20025;-71
2021/05/23 10:36:07;;;;;;;4.22;1.52;;;;;;;40.39;22.14;94783.28;10441730;28;20033;-72
2021/05/23 10:41:08;;;;;;;2.23;1.23;;;;;;;40.35;23.33;94774.19;10442571;28;20480;-70
2021/05/23 10:46:13;;;;;;;6.15;1.17;;;;;;;40.79;20.37;94766.22;10450938;28;20029;-70
2021/05/23 10:51:15;;;;;;;1.63;1.20;;;;;;;40.45;20.76;94764.47;10441543;28;20112;-72
2021/05/23 10:56:30;;;;;;;1.58;1.10;;;;;;;41.62;20.49;94762.41;10445914;28;20063;-70
2021/05/23 11:01:43;;;;;;;2.47;1.10;;;;;;;39.05;20.59;94760.41;10445739;28;20064;-72
2021/05/23 11:06:46;;;;;;;4.20;1.10;;;;;;;35.66;24.59;94761.50;10450964;28;21118;-72
2021/05/23 11:11:47;;;;;;;7.45;1.58;;;;;;;32.40;28.72;94762.63;10430731;28;20031;-71
2021/05/23 11:16:58;;;;;;;4.43;1.75;;;;;;;30.79;31.25;94749.56;10411767;28;20088;-71
2021/05/23 11:21:59;;;;;;;3.65;2.08;;;;;;;29.48;34.36;94755.75;10411469;28;20025;-71
2021/05/23 11:27:10;;;;;;;4.75;1.80;;;;;;;28.29;35.77;94744.34;10410853;28;20049;-71
2021/05/23 11:32:12;;;;;;;4.65;2.10;;;;;;;27.70;37.42;94734.09;10410658;28;20519;-71
2021/05/23 11:37:12;;;;;;;8.73;2.00;;;;;;;27.44;38.65;94735.06;10411258;28;20037;-71
2021/05/23 11:42:12;;;;;;;7.75;2.25;;;;;;;27.02;39.63;94716.94;10410946;28;20033;-71
2021/05/23 11:47:13;;;;;;;2.80;1.90;;;;;;;26.91;39.34;94731.41;10410589;28;20025;-71
2021/05/23 11:52:16;;;;;;;8.70;2.23;;;;;;;26.94;37.52;94721.59;10410565;28;20022;-71
2021/05/23 11:57:20;;;;;;;7.22;2.08;;;;;;;26.92;38.51;94704.66;10410642;28;20037;-71
2021/05/23 12:02:30;;;;;;;4.15;2.10;;;;;;;27.05;39.13;94705.94;10410402;28;20030;-71
2021/05/23 12:07:41;;;;;;;3.15;1.63;;;;;;;26.94;36.79;94705.03;10409186;28;20477;-71
2021/05/23 12:12:49;;;;;;;4.28;2.15;;;;;;;26.94;37.48;94688.50;10409216;28;20065;-71
2021/05/23 12:17:54;;;;;;;7.82;2.33;;;;;;;26.94;37.10;94688.50;10409237;28;20060;-71
2021/05/23 12:22:54;;;;;;;4.13;1.65;;;;;;;26.85;37.21;94685.25;10409396;28;20469;-71
2021/05/23 12:27:56;;;;;;;2.17;1.30;;;;;;;26.74;36.31;94668.63;10409607;28;20064;-71
2021/05/23 12:33:08;;;;;;;3.20;1.52;;;;;;;26.65;36.76;94659.84;10431639;28;20025;-71
2021/05/23 12:38:08;;;;;;;4.85;1.73;;;;;;;26.72;37.41;94660.75;10450290;28;20473;-71
2021/05/23 12:43:15;;;;;;;3.00;1.83;;;;;;;26.66;37.69;94648.41;10449585;28;20035;-71
2021/05/23 12:48:17;;;;;;;1.65;1.55;;;;;;;26.71;37.61;94641.78;10442852;28;20041;-71
2021/05/23 12:53:29;;;;;;;3.28;1.42;;;;;;;26.61;38.51;94637.72;10408438;28;20037;-71
2021/05/23 12:58:40;;;;;;;1.70;1.60;;;;;;;26.66;38.69;94622.84;10408346;28;20087;-71
2021/05/23 13:03:41;;;;;;;2.40;1.55;;;;;;;26.70;38.59;94618.19;10419518;28;20078;-71
2021/05/23 13:08:41;;;;;;;7.85;2.15;;;;;;;26.69;39.34;94606.34;10448846;28;20456;-71
2021/05/23 13:13:42;;;;;;;2.10;1.77;;;;;;;26.82;38.65;94614.31;10448678;28;20110;-71
2021/05/23 13:18:45;;;;;;;4.90;2.08;;;;;;;26.83;39.76;94610.41;10448536;28;20029;-71
2021/05/23 13:23:49;;;;;;;1.55;1.45;;;;;;;26.87;38.78;94600.97;10447251;28;20152;-71
2021/05/23 13:28:50;;;;;;;3.25;1.67;;;;;;;26.95;39.12;94596.31;10445790;28;20538;-71
2021/05/23 13:33:50;;;;;;;2.58;1.20;;;;;;;26.93;38.51;94595.91;10446510;28;20041;-71
2021/05/23 13:38:51;;;;;;;3.03;1.60;;;;;;;26.91;38.15;94595.50;10446355;28;20476;-71
2021/05/23 13:43:51;;;;;;;3.37;2.00;;;;;;;26.94;39.14;94591.97;10445791;28;20025;-71
2021/05/23 13:48:52;;;;;;;3.25;1.65;;;;;;;26.90;38.56;94586.44;10418858;28;20547;-71
2021/05/23 13:53:53;;;;;;;5.17;1.67;;;;;;;26.93;38.43;94587.63;10404242;28;20029;-71
2021/05/23 13:58:53;;;;;;;5.07;1.00;;;;;;;26.90;36.73;94578.19;10430912;28;20117;-71
2021/05/23 14:03:53;;;;;;;4.77;1.30;;;;;;;26.94;37.37;94572.66;10416156;28;20036;-71
2021/05/23 14:08:54;;;;;;;3.30;1.83;;;;;;;26.93;38.90;94566.38;10404412;28;20044;-71
2021/05/23 14:13:54;;;;;;;2.83;1.50;;;;;;;26.99;38.95;94569.56;10432629;28;20136;-71
2021/05/23 14:18:54;;;;;;;8.47;1.87;;;;;;;27.06;39.03;94561.34;10443457;28;20048;-72
2021/05/23 14:23:55;;;;;;;3.72;1.92;;;;;;;27.02;39.02;94560.50;10443989;28;20041;-71
2021/05/23 14:28:56;;;;;;;4.35;1.75;;;;;;;27.00;38.76;94570.34;10443925;28;20133;-72
2021/05/23 14:33:56;;;;;;;4.90;1.45;;;;;;;27.00;35.37;94559.31;10443798;28;20780;-71
2021/05/23 14:38:57;;;;;;;2.08;1.20;;;;;;;27.00;35.63;94556.56;10407278;28;20029;-71
2021/05/23 14:43:57;;;;;;;1.73;1.00;;;;;;;27.01;35.71;94555.38;10413577;28;20029;-71
2021/05/23 14:48:58;;;;;;;4.67;1.30;;;;;;;27.04;37.07;94555.41;10418416;28;20037;-73
2021/05/23 14:53:58;;;;;;;5.13;1.73;;;;;;;27.00;36.62;94553.78;10425831;28;20081;-72
2021/05/23 14:58:59;;;;;;;7.57;2.30;;;;;;;27.04;37.71;94557.38;10424325;28;20029;-74
2021/05/23 15:03:59;;;;;;;6.15;2.65;;;;;;;26.96;37.75;94562.06;10452356;28;20033;-72
2021/05/23 15:08:59;;;;;;;2.60;1.20;;;;;;;26.89;36.25;94564.75;10452199;28;20033;-72
2021/05/23 15:14:00;;;;;;;5.30;2.07;;;;;;;26.82;39.44;94565.50;10452550;28;20723;-72
2021/05/23 15:19:00;;;;;;;3.33;1.80;;;;;;;26.88;35.03;94563.19;10451909;28;20036;-72
2021/05/23 15:24:00;;;;;;;4.93;1.50;;;;;;;26.85;35.34;94574.94;10450877;28;20095;-72
2021/05/23 15:34:20;;;;;;;6.72;1.52;;;;;;;26.77;33.77;94572.13;10426241;28;20116;-72
2021/05/23 15:39:21;;;;;;;6.80;1.40;;;;;;;26.75;35.83;94570.94;10435161;28;20025;-71
2021/05/23 15:44:22;;;;;;;6.63;1.25;;;;;;;26.75;34.78;94576.44;10410466;28;20030;-71
2021/05/23 15:49:25;;;;;;;8.05;1.15;;;;;;;26.74;36.23;94581.19;10438150;28;20484;-72
2021/05/23 15:54:26;;;;;;;8.38;1.20;;;;;;;26.78;33.58;94584.75;10450327;28;20037;-71
2021/05/23 15:59:26;;;;;;;4.40;0.97;;;;;;;26.78;33.90;94575.72;10413661;28;20033;-72
2021/05/23 16:04:27;;;;;;;3.30;0.80;;;;;;;26.73;34.31;94587.88;10435325;28;20271;-71
2021/05/23 16:09:27;;;;;;;6.00;1.10;;;;;;;26.62;34.52;94589.72;10450075;28;20024;-71
2021/05/23 16:14:27;;;;;;;4.17;1.07;;;;;;;26.52;33.61;94607.72;10450013;28;20024;-71
2021/05/23 16:19:28;;;;;;;2.43;1.00;;;;;;;26.39;34.46;94596.19;10449904;28;20115;-71
2021/05/23 16:24:28;;;;;;;4.13;1.00;;;;;;;26.33;34.17;94600.47;10448808;28;20087;-71
2021/05/23 16:29:28;;;;;;;6.73;1.30;;;;;;;26.30;34.93;94606.72;10449085;28;20766;-72
2021/05/23 16:34:29;;;;;;;5.23;1.57;;;;;;;26.18;35.26;94621.56;10449338;28;20028;-72
2021/05/23 16:39:29;;;;;;;3.13;1.10;;;;;;;26.08;35.90;94634.03;10448374;28;20031;-72
2021/05/23 16:44:30;;;;;;;5.30;1.07;;;;;;;25.99;35.75;94624.47;10447856;28;20268;-72
2021/05/23 16:49:30;;;;;;;4.43;0.70;;;;;;;25.89;35.80;94636.94;10448480;28;20757;-72
2021/05/23 16:54:31;;;;;;;3.33;1.00;;;;;;;25.76;36.24;94637.16;10447978;28;20029;-72
2021/05/23 16:59:31;;;;;;;4.57;1.10;;;;;;;25.73;36.12;94640.66;10448230;28;20025;-72
2021/05/23 17:04:32;;;;;;;4.83;1.40;;;;;;;25.63;36.58;94643.25;10447983;28;20267;-72
2021/05/23 17:09:32;;;;;;;3.75;1.33;;;;;;;25.53;36.60;94639.97;10425019;28;20659;-72
2021/05/23 17:14:33;;;;;;;3.97;1.60;;;;;;;25.35;36.98;94636.19;10406056;28;20025;-72
2021/05/23 17:19:33;;;;;;;5.43;1.50;;;;;;;25.28;36.89;94628.59;10406080;28;20033;-72
2021/05/23 17:24:34;;;;;;;3.63;1.27;;;;;;;25.12;37.44;94638.94;10422445;28;20137;-72
2021/05/23 17:29:34;;;;;;;2.63;1.60;;;;;;;25.02;37.40;94641.16;10426140;28;20037;-72
2021/05/23 17:34:35;;;;;;;2.13;1.30;;;;;;;24.96;37.53;94650.88;10428606;28;20029;-72
2021/05/23 17:39:35;;;;;;;1.93;1.17;;;;;;;24.81;38.06;94649.88;10417016;28;20467;-72
2021/05/23 17:44:35;;;;;;;9.63;2.03;;;;;;;24.64;39.39;94650.34;10420308;28;20064;-72
2021/05/23 17:49:36;;;;;;;1.83;1.10;;;;;;;24.62;38.45;94656.19;10437912;28;20826;-72
2021/05/23 17:54:37;;;;;;;2.40;1.25;;;;;;;24.62;38.92;94658.16;10442762;28;20029;-72
2021/05/23 17:59:37;;;;;;;3.97;1.50;;;;;;;24.52;38.96;94654.81;10442032;28;20020;-72
2021/05/23 18:04:37;;;;;;;8.73;2.93;;;;;;;24.38;39.24;94657.31;10441468;28;20605;-72
2021/05/23 18:09:38;;;;;;;7.57;1.43;;;;;;;24.34;39.79;94673.72;10438811;28;20024;-72
2021/05/23 18:14:38;;;;;;;7.80;1.50;;;;;;;24.23;39.73;94676.25;10442293;28;20024;-72
2021/05/23 18:19:39;;;;;;;3.08;1.58;;;;;;;24.18;39.49;94689.47;10442777;28;20025;-72
2021/05/23 18:24:40;;;;;;;4.38;1.77;;;;;;;24.16;39.79;94681.59;10439142;28;20115;-72
2021/05/23 18:29:41;;;;;;;4.97;1.98;;;;;;;24.09;40.52;94699.91;10440727;28;20439;-72
2021/05/23 18:34:43;;;;;;;2.40;1.88;;;;;;;23.98;40.90;94716.91;10439361;28;20036;-72
2021/05/23 18:39:46;;;;;;;5.05;2.40;;;;;;;23.73;44.50;94710.88;10439199;28;20020;-72
2021/05/23 18:44:47;;;;;;;4.88;2.33;;;;;;;23.50;45.77;94717.03;10436684;28;20024;-73
2021/05/23 18:49:47;;;;;;;9.13;2.92;;;;;;;23.36;50.82;94736.69;10437149;28;20048;-72
2021/05/23 18:54:50;;;;;;;4.53;2.13;;;;;;;22.92;52.56;94750.44;10440145;28;20401;-71
2021/05/23 18:59:50;;;;;;;7.95;3.00;;;;;;;22.76;52.63;94746.88;10433489;28;20078;-71
2021/05/23 19:04:51;;;;;;;13.73;4.90;;;;;;;22.49;52.14;94760.25;10412702;28;20921;-71
2021/05/23 19:09:51;;;;;;;8.03;4.07;;;;;;;22.42;56.46;94760.84;10402181;28;20540;-72
2021/05/23 19:14:52;;;;;;;11.30;2.60;;;;;;;22.18;59.25;94781.63;10429118;28;20279;-71
2021/05/23 19:19:52;;;;;;;5.43;2.88;;;;;;;22.02;64.03;94789.00;10430477;28;20013;-72
2021/05/23 19:24:52;;;;;;;8.03;4.37;;;;;;;21.78;65.63;94795.28;10403213;28;20519;-72
2021/05/23 19:29:53;;;;;;;7.47;4.87;;;;;;;21.65;68.51;94811.69;10412629;28;20037;-71
2021/05/23 19:34:54;;;;;;;8.60;5.22;;;;;;;21.44;71.71;94813.72;10450863;28;20082;-72
2021/05/23 19:39:55;;;;;;;11.27;4.38;;;;;;;21.32;73.19;94806.28;10450704;28;20021;-71
2021/05/23 19:44:55;;;;;;;10.73;4.90;;;;;;;21.22;73.42;94815.72;10444991;28;20480;-71
2021/05/23 19:49:55;;;;;;;20.87;11.83;;;;;;;21.20;79.14;94818.03;10409434;28;20036;-71
2021/05/23 19:54:56;;;;;;;13.33;5.50;;;;;;;21.12;80.07;94811.50;10427151;28;20043;-71
2021/05/23 19:59:56;;;;;;;16.52;4.50;;;;;;;20.98;82.15;94809.09;10452490;28;20029;-72
2021/05/23 20:04:59;;;;;;;10.10;4.78;;;;;;;20.84;85.71;94811.31;10430321;28;20041;-72
2021/05/23 20:09:59;;;;;;;34.40;20.90;;;;;;;20.71;86.13;94812.41;10448579;28;20451;-73
2021/05/23 20:15:00;;;;;;;9.07;4.50;;;;;;;20.52;88.62;94816.41;10420509;28;20024;-72
2021/05/23 20:20:00;;;;;;;8.10;4.20;;;;;;;20.41;89.83;94826.16;10442060;28;20029;-73
2021/05/23 20:25:01;;;;;;;15.93;5.25;;;;;;;20.22;86.21;94830.16;10423754;28;20049;-73
2021/05/23 20:30:04;;;;;;;12.43;4.80;;;;;;;20.06;92.45;94843.56;10408853;28;20366;-72
2021/05/23 20:35:06;;;;;;;7.60;3.83;;;;;;;19.98;94.69;94847.97;10390388;28;20030;-73
2021/05/23 20:40:08;;;;;;;10.70;4.30;;;;;;;19.85;95.98;94854.44;10408160;28;20477;-72
2021/05/23 20:45:09;;;;;;;10.48;4.97;;;;;;;19.76;98.54;94856.41;10408092;28;20495;-73
2021/05/23 20:50:10;;;;;;;11.32;5.00;;;;;;;19.53;100.00;94872.22;10407865;28;20036;-73
2021/05/23 20:55:12;;;;;;;9.68;4.35;;;;;;;19.21;100.00;94883.38;10407661;28;20017;-72
2021/05/23 21:00:14;;;;;;;7.95;4.32;;;;;;;18.85;100.00;94881.81;10421225;28;20055;-74
2021/05/23 21:05:16;;;;;;;10.82;4.50;;;;;;;18.83;100.00;94908.56;10449371;28;20035;-79
2021/05/23 21:10:17;;;;;;;10.18;4.68;;;;;;;18.83;100.00;94902.31;10449220;28;20039;-78
2021/05/23 21:15:18;;;;;;;7.32;4.78;;;;;;;18.53;100.00;94922.03;10447232;28;20082;-78
2021/05/23 21:20:19;;;;;;;15.07;4.40;;;;;;;18.43;100.00;94923.13;10449626;28;20397;-79
2021/05/23 21:25:23;;;;;;;8.85;4.72;;;;;;;18.51;100.00;94932.41;10447018;28;20049;-79
2021/05/23 21:30:23;;;;;;;8.77;4.07;;;;;;;18.31;100.00;94935.72;10446857;28;20039;-79
2021/05/23 21:35:24;;;;;;;20.00;4.68;;;;;;;18.41;100.00;94930.00;10447476;28;20021;-79
2021/05/23 21:40:24;;;;;;;8.35;4.15;;;;;;;18.20;100.00;94933.31;10447108;28;20013;-79
2021/05/23 21:45:25;;;;;;;7.37;3.77;;;;;;;18.09;100.00;94932.81;10446474;28;20052;-79
2021/05/23 21:50:25;;;;;;;5.07;3.70;;;;;;;18.09;100.00;94934.75;10444947;28;20324;-79
2021/05/23 21:55:26;;;;;;;12.98;4.95;;;;;;;18.06;100.00;94951.69;10446425;28;20495;-79
2021/05/23 22:00:28;;;;;;;17.60;6.57;;;;;;;18.12;100.00;94953.13;10445117;28;20021;-79
2021/05/23 22:05:29;;;;;;;7.75;5.03;;;;;;;18.16;100.00;94967.72;10446432;28;20035;-80
2021/05/23 22:10:31;;;;;;;9.20;4.97;;;;;;;17.88;100.00;94959.75;10446605;28;20072;-79
2021/05/23 22:15:32;;;;;;;10.30;4.40;;;;;;;17.96;100.00;94958.22;10445373;28;20028;-79
2021/05/23 22:20:33;;;;;;;6.80;3.77;;;;;;;17.68;100.00;94974.72;10445218;28;20021;-80
2021/05/23 22:25:34;;;;;;;13.57;3.92;;;;;;;17.74;100.00;94983.53;10445057;28;20299;-79
2021/05/23 22:30:36;;;;;;;7.82;3.95;;;;;;;17.58;100.00;95002.13;10444030;28;20036;-80
2021/05/23 22:35:37;;;;;;;16.10;4.78;;;;;;;17.56;100.00;95001.66;10445740;28;20056;-79
2021/05/23 22:40:38;;;;;;;13.57;4.95;;;;;;;17.34;100.00;94988.88;10444775;28;20116;-79
2021/05/23 22:45:38;;;;;;;11.80;4.10;;;;;;;17.37;100.00;94980.13;10446006;28;20420;-80
2021/05/23 22:50:43;;;;;;;8.32;3.50;;;;;;;17.38;100.00;94976.28;10414390;28;20025;-79
2021/05/23 22:55:55;;;;;;;7.07;3.88;;;;;;;17.53;100.00;94984.06;10403855;28;20069;-80
2021/05/23 23:01:02;;;;;;;8.63;4.15;;;;;;;17.49;100.00;94982.28;10408641;28;20108;-79
2021/05/23 23:06:02;;;;;;;6.88;3.50;;;;;;;17.61;100.00;94985.22;10410728;28;20108;-79
2021/05/23 23:11:03;;;;;;;8.30;3.80;;;;;;;17.67;100.00;94986.69;10409616;28;20017;-81
2021/05/23 23:16:04;;;;;;;6.97;3.53;;;;;;;17.73;100.00;94992.78;10410983;28;20532;-79
2021/05/23 23:21:04;;;;;;;7.78;4.18;;;;;;;17.57;100.00;94989.69;10410881;28;20029;-79